Time;durP1;ratioP1;P1;durP2;ratioP2;P2;SDS_P1;SDS_P2;PMS_P1;PMS_P2;Temp;Humidity;BMP_temperature;BMP_pressure;BME280_temperature;BME280_humidity;BME280_pressure;Samples;Min_cycle;Max_cycle;Signal;HPM_P1;HPM_P2
2022/08/24 00:00:41;;;;;;;2.73;1.80;;;13.80;99.90;14.90;96952.00;;;;4963017;28;20203;-71
2022/08/24 00:03:31;;;;;;;4.80;2.00;;;13.90;99.90;14.70;96953.00;;;;4961678;28;20226;-71
2022/08/24 00:06:22;;;;;;;2.27;2.10;;;13.80;99.90;14.50;96952.00;;;;4969403;28;20208;-70
2022/08/24 00:09:11;;;;;;;2.73;2.53;;;13.80;99.90;14.40;96944.00;;;;4988353;28;20233;-71
2022/08/24 00:12:00;;;;;;;2.40;2.20;;;13.70;99.90;14.50;96950.00;;;;4988134;28;20213;-71
2022/08/24 00:14:49;;;;;;;3.50;1.87;;;13.70;99.90;14.50;96947.00;;;;4988267;28;20221;-72
2022/08/24 00:17:38;;;;;;;2.10;1.97;;;13.70;99.90;14.80;96943.00;;;;4987717;28;20195;-70
2022/08/24 00:20:28;;;;;;;2.00;1.90;;;13.70;99.90;14.90;96957.00;;;;4979764;28;20199;-70
2022/08/24 00:23:17;;;;;;;2.03;1.93;;;13.70;99.90;15.10;96947.00;;;;4966117;28;20233;-70
2022/08/24 00:26:07;;;;;;;2.73;1.93;;;13.80;99.90;15.00;96949.00;;;;4965630;28;20199;-70
2022/08/24 00:28:56;;;;;;;1.70;1.60;;;13.80;99.90;14.90;96953.00;;;;4964334;28;20210;-69
2022/08/24 00:31:45;;;;;;;6.23;2.17;;;13.90;99.90;14.80;96950.00;;;;4966521;28;20195;-71
2022/08/24 00:34:34;;;;;;;4.13;2.00;;;13.90;99.90;15.00;96954.00;;;;4973649;28;20238;-69
2022/08/24 00:37:25;;;;;;;2.73;1.90;;;13.90;99.90;15.00;96960.00;;;;4973382;28;20211;-71
2022/08/24 00:40:23;;;;;;;3.97;2.20;;;13.90;99.90;15.10;96947.00;;;;4973377;28;20210;-71
2022/08/24 00:43:12;;;;;;;2.30;2.10;;;13.90;99.90;15.10;96952.00;;;;4981529;28;20219;-69
2022/08/24 00:46:14;;;;;;;4.93;1.80;;;13.90;99.90;15.20;96956.00;;;;4987375;28;20202;-70
2022/08/24 00:49:09;;;;;;;2.17;1.87;;;13.90;99.90;14.90;96972.00;;;;4969390;28;20199;-72
2022/08/24 00:52:05;;;;;;;2.03;1.93;;;13.90;99.90;15.10;96955.00;;;;4963547;28;20203;-71
2022/08/24 00:55:02;;;;;;;4.40;2.90;;;13.90;99.90;15.20;96949.00;;;;4967764;28;20231;-71
2022/08/24 00:57:58;;;;;;;2.67;1.90;;;14.00;99.90;14.90;96960.00;;;;4962827;28;20211;-69
2022/08/24 01:00:51;;;;;;;1.90;1.73;;;14.00;99.90;14.80;96974.00;;;;4963507;28;20199;-70
2022/08/24 01:03:41;;;;;;;1.57;1.47;;;13.90;99.90;14.70;96980.00;;;;4975426;28;20710;-70
2022/08/24 01:06:32;;;;;;;2.00;1.80;;;13.80;99.90;15.00;96975.00;;;;4989133;28;20195;-69
2022/08/24 01:09:21;;;;;;;2.07;1.93;;;13.80;99.90;15.00;96970.00;;;;4975180;28;20204;-70
2022/08/24 01:12:11;;;;;;;1.77;1.67;;;13.80;99.90;15.10;96963.00;;;;4985777;28;20690;-69
2022/08/24 01:15:02;;;;;;;2.33;1.90;;;13.90;99.90;15.00;96971.00;;;;4987320;28;20226;-69
2022/08/24 01:21:04;;;;;;;2.10;1.80;;;14.00;99.90;15.10;96959.00;;;;4964224;28;20203;-71
2022/08/24 01:23:57;;;;;;;2.00;1.90;;;14.00;99.90;15.00;96952.00;;;;5022134;22;20720;-70
2022/08/24 01:26:49;;;;;;;6.93;1.90;;;14.10;99.90;14.90;96956.00;;;;5026001;28;20628;-72
2022/08/24 01:29:39;;;;;;;2.33;1.87;;;14.10;99.90;15.20;96955.00;;;;5022062;28;20216;-71
2022/08/24 01:32:27;;;;;;;1.67;1.43;;;14.00;99.90;15.30;96957.00;;;;5024888;28;20213;-71
2022/08/24 01:35:16;;;;;;;1.70;1.60;;;14.10;99.90;15.10;96953.00;;;;5023609;28;20216;-72
2022/08/24 01:38:09;;;;;;;2.03;1.90;;;14.10;99.90;15.20;96956.00;;;;5027336;28;20580;-70
2022/08/24 01:41:03;;;;;;;1.70;1.60;;;14.10;99.90;15.00;96948.00;;;;5009753;28;20204;-70
2022/08/24 01:43:53;;;;;;;1.73;1.63;;;14.00;99.90;15.10;96952.00;;;;5027262;28;20213;-72
2022/08/24 01:46:44;;;;;;;3.17;2.20;;;14.00;99.90;15.20;96944.00;;;;5028976;28;20197;-71
2022/08/24 01:49:37;;;;;;;1.80;1.67;;;14.10;99.90;15.30;96946.00;;;;5020566;28;20217;-72
2022/08/24 01:52:27;;;;;;;1.73;1.63;;;14.10;99.90;15.30;96948.00;;;;5022855;28;20198;-70
2022/08/24 01:55:24;;;;;;;2.00;1.57;;;14.10;99.90;15.10;96939.00;;;;5029005;28;20403;-71
2022/08/24 01:58:14;;;;;;;2.07;1.90;;;14.10;99.90;15.30;96946.00;;;;5028443;28;20208;-70
2022/08/24 02:01:03;;;;;;;6.20;2.07;;;14.10;99.90;15.30;96950.00;;;;5029343;28;20209;-74
2022/08/24 02:03:52;;;;;;;2.13;1.93;;;14.00;99.90;15.10;96948.00;;;;5021399;28;20213;-70
2022/08/24 02:06:43;;;;;;;2.20;2.00;;;14.00;99.90;15.00;96953.00;;;;5017829;28;20684;-72
2022/08/24 02:09:32;;;;;;;1.70;1.30;;;14.00;99.90;15.10;96944.00;;;;5027601;28;20680;-71
2022/08/24 02:12:21;;;;;;;1.90;1.80;;;13.90;99.90;15.00;96943.00;;;;5026405;28;20201;-71
2022/08/24 02:15:12;;;;;;;2.27;2.07;;;13.90;99.90;15.10;96945.00;;;;5029353;28;20209;-71
2022/08/24 02:18:01;;;;;;;1.57;1.47;;;13.90;99.90;15.00;96943.00;;;;5021959;28;20213;-72
2022/08/24 02:20:50;;;;;;;1.50;1.40;;;13.90;99.90;14.90;96950.00;;;;5027291;28;20566;-71
2022/08/24 02:23:41;;;;;;;1.93;1.80;;;13.80;99.90;14.70;96951.00;;;;5026800;28;20225;-70
2022/08/24 02:26:30;;;;;;;2.03;1.90;;;13.80;99.90;14.70;96952.00;;;;5020850;28;20200;-71
2022/08/24 02:29:19;;;;;;;1.90;1.80;;;13.70;99.90;14.90;96953.00;;;;5019779;28;20202;-70
2022/08/24 02:32:10;;;;;;;3.67;1.90;;;13.70;99.90;14.90;96945.00;;;;5027212;28;20699;-72
2022/08/24 02:34:58;;;;;;;2.27;2.07;;;13.70;99.90;14.70;96942.00;;;;5027079;28;20225;-71
2022/08/24 02:37:47;;;;;;;3.03;1.87;;;13.70;99.90;14.80;96954.00;;;;5026814;28;20212;-70
2022/08/24 02:40:37;;;;;;;1.87;1.77;;;13.60;99.90;14.50;96951.00;;;;5028661;28;20202;-70
2022/08/24 02:43:26;;;;;;;1.97;1.87;;;13.60;99.90;14.40;96958.00;;;;5026597;28;20217;-71
2022/08/24 02:46:18;;;;;;;2.07;1.87;;;13.50;99.90;14.10;96951.00;;;;5028633;28;20205;-73
2022/08/24 02:49:08;;;;;;;2.33;2.00;;;13.40;99.90;14.30;96952.00;;;;5028760;28;20692;-70
2022/08/24 02:51:57;;;;;;;3.83;1.60;;;13.40;99.90;14.10;96946.00;;;;5016955;28;20208;-69
2022/08/24 02:54:46;;;;;;;2.70;2.50;;;13.40;99.90;14.10;96953.00;;;;5019733;28;20224;-72
2022/08/24 02:57:35;;;;;;;2.03;1.83;;;13.30;99.90;13.80;96949.00;;;;5027494;28;20244;-69
2022/08/24 03:00:24;;;;;;;2.97;2.13;;;13.20;99.90;13.90;96949.00;;;;5028561;28;20197;-72
2022/08/24 03:03:13;;;;;;;2.17;2.07;;;13.10;99.90;13.80;96959.00;;;;5028284;28;20989;-70
2022/08/24 03:06:04;;;;;;;3.63;2.23;;;13.00;99.90;13.90;96961.00;;;;5030828;28;20878;-71
2022/08/24 03:08:53;;;;;;;2.60;2.03;;;13.00;99.90;14.10;96960.00;;;;5031941;28;20578;-73
2022/08/24 03:11:41;;;;;;;2.40;2.20;;;13.10;99.90;14.30;96954.00;;;;5030383;28;20198;-71
2022/08/24 03:14:30;;;;;;;3.07;2.77;;;13.20;99.90;14.20;96960.00;;;;5031576;28;20232;-73
2022/08/24 03:17:19;;;;;;;2.43;2.23;;;13.20;99.90;13.90;96952.00;;;;5031382;28;20216;-70
2022/08/24 03:20:13;;;;;;;4.17;2.40;;;13.10;99.90;13.70;96958.00;;;;5031763;28;20201;-72
2022/08/24 03:23:04;;;;;;;2.87;2.43;;;13.10;99.90;13.70;96959.00;;;;5029362;28;20200;-70
2022/08/24 03:25:53;;;;;;;4.03;2.30;;;13.00;99.90;13.70;96955.00;;;;5012149;28;20199;-69
2022/08/24 03:28:42;;;;;;;4.60;2.40;;;13.00;99.90;13.40;96956.00;;;;5011151;28;20195;-73
2022/08/24 03:31:31;;;;;;;5.73;2.27;;;12.90;99.90;13.50;96956.00;;;;5006434;28;20206;-69
2022/08/24 03:34:20;;;;;;;2.50;2.30;;;12.80;99.90;13.50;96960.00;;;;5024506;28;20597;-70
2022/08/24 03:37:08;;;;;;;2.80;2.53;;;12.80;99.90;13.80;96965.00;;;;5012019;28;20621;-70
2022/08/24 03:39:59;;;;;;;3.57;2.67;;;12.80;99.90;13.80;96957.00;;;;5003983;28;20209;-74
2022/08/24 03:42:48;;;;;;;3.17;2.87;;;12.90;99.90;13.90;96954.00;;;;5010720;28;20232;-72
2022/08/24 03:45:36;;;;;;;2.40;2.13;;;12.90;99.90;13.70;96968.00;;;;5012012;28;20200;-70
2022/08/24 03:48:25;;;;;;;2.93;2.37;;;13.30;99.90;14.00;96992.00;;;;5014682;28;20202;-71
2022/08/24 03:51:16;;;;;;;2.77;2.57;;;12.90;99.90;13.90;96984.00;;;;5012419;28;20209;-71
2022/08/24 03:54:09;;;;;;;3.17;2.87;;;12.90;99.90;14.20;96979.00;;;;5030989;28;20220;-70
2022/08/24 03:57:00;;;;;;;4.70;2.63;;;13.00;99.90;14.30;96976.00;;;;5030142;28;20784;-71
2022/08/24 03:59:49;;;;;;;3.80;2.27;;;13.10;99.90;14.10;96991.00;;;;5030188;28;20206;-71
2022/08/24 04:02:38;;;;;;;2.10;1.97;;;13.10;99.90;14.00;96981.00;;;;5020187;28;20589;-71
2022/08/24 04:05:27;;;;;;;3.63;2.00;;;13.00;99.90;13.90;96987.00;;;;5030605;28;20259;-70
2022/08/24 04:08:16;;;;;;;2.63;2.43;;;13.00;99.90;13.90;96988.00;;;;5030454;28;20208;-72
2022/08/24 04:11:05;;;;;;;5.43;2.20;;;13.00;99.90;13.80;96992.00;;;;5031169;28;20212;-70
2022/08/24 04:13:58;;;;;;;5.03;2.83;;;12.90;99.90;13.90;96987.00;;;;5029648;28;20225;-71
2022/08/24 04:16:47;;;;;;;2.33;2.13;;;12.90;99.90;13.60;96990.00;;;;5029528;28;20589;-71
2022/08/24 04:19:36;;;;;;;3.37;2.40;;;12.90;99.90;13.80;96991.00;;;;5030996;28;20204;-70
2022/08/24 04:22:26;;;;;;;4.80;2.30;;;12.90;99.90;14.00;96998.00;;;;5029650;28;20209;-71
2022/08/24 04:25:15;;;;;;;2.60;2.40;;;12.90;99.90;13.90;97002.00;;;;5035715;28;20720;-73
2022/08/24 04:28:05;;;;;;;2.47;2.27;;;12.90;99.90;13.70;97003.00;;;;5030653;28;20211;-69
2022/08/24 04:30:56;;;;;;;3.07;2.77;;;12.90;99.90;13.40;97001.00;;;;5030703;28;20208;-72
2022/08/24 04:33:45;;;;;;;2.93;2.20;;;12.80;99.90;13.30;96993.00;;;;5044099;28;20221;-70
2022/08/24 04:36:35;;;;;;;3.07;2.33;;;12.70;99.90;13.20;96988.00;;;;5049279;28;20193;-70
2022/08/24 04:39:23;;;;;;;3.87;3.03;;;12.70;99.90;13.40;96990.00;;;;5050838;28;20201;-72
2022/08/24 04:42:12;;;;;;;2.53;2.33;;;12.60;99.90;13.30;96999.00;;;;5040352;28;20204;-72
2022/08/24 04:45:01;;;;;;;4.67;2.60;;;12.60;99.90;13.50;97009.00;;;;5029700;28;20605;-72
2022/08/24 04:47:51;;;;;;;3.13;2.27;;;12.60;99.90;13.60;97003.00;;;;5030158;28;20193;-71
2022/08/24 04:50:43;;;;;;;2.70;2.50;;;12.60;99.90;13.70;97005.00;;;;5029542;28;20697;-70
2022/08/24 04:53:33;;;;;;;4.63;3.23;;;12.60;99.90;13.70;97002.00;;;;5029400;28;20217;-71
2022/08/24 04:56:25;;;;;;;3.03;2.73;;;12.70;99.90;13.80;97001.00;;;;5030182;28;20197;-71
2022/08/24 04:59:13;;;;;;;4.13;2.70;;;12.70;99.90;14.00;97000.00;;;;5049488;28;20224;-70
2022/08/24 05:02:02;;;;;;;3.80;2.50;;;12.80;99.90;14.30;97009.00;;;;5034002;28;20205;-70
2022/08/24 05:04:54;;;;;;;7.63;2.50;;;12.90;99.90;14.30;97000.00;;;;5009783;28;20210;-70
2022/08/24 05:07:43;;;;;;;2.90;2.63;;;13.00;99.90;14.50;97011.00;;;;5018944;28;20212;-70
2022/08/24 05:10:32;;;;;;;2.90;2.70;;;13.00;99.90;14.60;97010.00;;;;5029458;28;20197;-70
2022/08/24 05:13:21;;;;;;;2.23;2.03;;;13.20;99.90;14.50;97005.00;;;;5032475;28;20213;-70
2022/08/24 05:16:14;;;;;;;2.70;2.50;;;13.20;99.90;14.60;96999.00;;;;5040826;28;20204;-70
2022/08/24 05:19:03;;;;;;;11.53;2.87;;;13.30;99.90;14.70;97001.00;;;;5038171;28;20263;-70
2022/08/24 05:21:54;;;;;;;3.27;1.97;;;13.40;99.90;14.50;97005.00;;;;5026332;28;20189;-71
2022/08/24 05:24:43;;;;;;;1.67;1.57;;;13.40;99.90;14.20;96998.00;;;;5010840;28;20230;-72
2022/08/24 05:27:33;;;;;;;2.10;2.00;;;13.40;99.90;14.40;96986.00;;;;5009642;28;20209;-72
2022/08/24 05:30:22;;;;;;;2.93;2.60;;;13.30;99.90;14.40;96983.00;;;;5004367;28;20209;-71
2022/08/24 05:33:11;;;;;;;2.40;2.20;;;13.40;99.90;14.50;96987.00;;;;5009680;28;20208;-70
2022/08/24 05:36:00;;;;;;;4.63;2.80;;;13.40;99.90;14.80;96981.00;;;;5002744;28;20599;-72
2022/08/24 05:38:53;;;;;;;2.77;2.57;;;13.40;99.90;14.80;96988.00;;;;5013984;28;20218;-70
2022/08/24 05:41:45;;;;;;;5.23;2.10;;;13.50;99.90;14.90;96980.00;;;;5008921;28;20673;-71
2022/08/24 05:44:33;;;;;;;2.93;2.17;;;13.50;99.90;14.90;96984.00;;;;5015149;28;20218;-71
2022/08/24 05:47:22;;;;;;;4.00;3.23;;;13.70;99.90;14.90;96985.00;;;;5026137;28;20204;-71
2022/08/24 05:50:11;;;;;;;4.00;2.33;;;13.70;99.90;15.10;96983.00;;;;5020668;28;20204;-70
2022/08/24 05:53:00;;;;;;;2.77;2.23;;;13.80;99.90;15.20;96975.00;;;;5021356;28;20258;-72
2022/08/24 05:55:50;;;;;;;2.93;2.67;;;13.90;99.90;15.20;96984.00;;;;5023387;28;20209;-73
2022/08/24 05:58:40;;;;;;;3.23;2.33;;;14.00;99.90;15.40;96998.00;;;;5016468;28;20218;-71
2022/08/24 06:01:30;;;;;;;2.97;2.20;;;14.10;99.90;15.30;96987.00;;;;5024654;28;20198;-71
2022/08/24 06:04:19;;;;;;;2.60;2.40;;;14.10;99.90;15.40;96987.00;;;;5018412;28;20306;-70
2022/08/24 06:07:10;;;;;;;2.57;2.37;;;14.20;99.90;15.70;96989.00;;;;5010635;28;20581;-71
2022/08/24 06:09:59;;;;;;;6.63;2.73;;;14.30;99.90;15.90;96988.00;;;;5018527;28;20580;-72
2022/08/24 06:12:55;;;;;;;2.70;2.33;;;14.40;99.90;16.10;96988.00;;;;5011115;28;20256;-70
2022/08/24 06:15:44;;;;;;;2.70;2.50;;;14.60;99.90;16.30;96983.00;;;;5004020;28;21018;-71
2022/08/24 06:18:42;;;;;;;4.20;3.80;;;14.70;99.90;16.50;96986.00;;;;5015400;28;20688;-70
2022/08/24 06:21:31;;;;;;;3.57;2.73;;;14.90;99.90;16.50;96970.00;;;;5008819;28;20584;-71
2022/08/24 06:27:20;;;;;;;4.63;2.40;;;15.00;99.90;16.70;96972.00;;;;5003820;28;20246;-71
2022/08/24 06:27:31;;;;;;;6.47;2.77;;;15.20;99.90;16.90;96980.00;;;;5022860;28;20680;-71
2022/08/24 06:30:21;;;;;;;6.63;2.97;;;15.40;99.90;17.10;96981.00;;;;5017847;28;20208;-70
2022/08/24 06:33:10;;;;;;;3.23;2.93;;;15.50;99.90;16.90;96983.00;;;;5013536;28;20201;-73
2022/08/24 06:35:59;;;;;;;2.97;2.70;;;15.70;99.90;17.00;96975.00;;;;5028183;28;20225;-71
2022/08/24 06:38:48;;;;;;;2.33;2.13;;;15.80;99.90;17.40;96974.00;;;;5023486;28;20594;-70
2022/08/24 06:41:38;;;;;;;9.90;3.17;;;15.90;99.90;17.70;96976.00;;;;5011059;28;20210;-70
2022/08/24 06:44:26;;;;;;;5.03;2.27;;;16.00;99.90;18.10;96977.00;;;;5021628;28;20221;-70
2022/08/24 06:47:17;;;;;;;5.33;2.83;;;16.20;99.90;18.20;96975.00;;;;5011691;28;20692;-70
2022/08/24 06:50:07;;;;;;;4.50;2.70;;;16.40;99.90;18.40;96961.00;;;;5023975;28;20197;-71
2022/08/24 06:52:56;;;;;;;4.77;2.43;;;16.60;99.90;18.60;96957.00;;;;5016139;28;20208;-71
2022/08/24 06:55:46;;;;;;;3.63;2.27;;;16.80;99.90;18.80;96962.00;;;;5012643;28;20684;-71
2022/08/24 06:58:36;;;;;;;5.07;2.73;;;16.90;99.90;18.90;96963.00;;;;5026939;28;20229;-71
2022/08/24 07:01:27;;;;;;;3.50;2.37;;;17.10;99.90;19.10;96962.00;;;;5029216;28;20216;-70
2022/08/24 07:04:17;;;;;;;4.83;2.50;;;17.30;99.90;19.30;96958.00;;;;5009999;28;20264;-71
2022/08/24 07:07:06;;;;;;;3.93;2.60;;;17.40;99.90;19.40;96964.00;;;;5025709;28;20198;-70
2022/08/24 07:09:55;;;;;;;7.03;2.17;;;17.60;99.90;19.60;96969.00;;;;5017200;28;20197;-71
2022/08/24 07:12:44;;;;;;;6.30;1.90;;;17.70;99.90;19.70;96960.00;;;;5018193;28;20205;-71
2022/08/24 07:15:34;;;;;;;3.83;2.40;;;17.80;99.90;19.80;96959.00;;;;5031106;28;20197;-71
2022/08/24 07:18:23;;;;;;;4.03;1.80;;;18.00;99.90;20.00;96961.00;;;;5025237;28;20233;-71
2022/08/24 07:21:13;;;;;;;5.93;2.73;;;18.10;99.90;20.30;96973.00;;;;5017943;28;20204;-72
2022/08/24 07:24:03;;;;;;;4.87;2.33;;;18.30;99.90;20.60;96966.00;;;;5042138;22;20247;-86
2022/08/24 07:26:52;;;;;;;5.97;2.83;;;18.50;99.90;20.70;96978.00;;;;5051841;28;20776;-85
2022/08/24 07:29:41;;;;;;;5.13;2.10;;;18.70;99.90;20.90;96982.00;;;;5049727;28;20193;-86
2022/08/24 07:32:36;;;;;;;6.33;2.87;;;18.90;99.90;20.90;96986.00;;;;5036018;28;20205;-88
2022/08/24 07:35:27;;;;;;;5.77;1.97;;;19.00;99.90;21.10;96987.00;;;;5027319;28;20220;-85
2022/08/24 07:38:17;;;;;;;6.23;2.10;;;19.20;99.90;21.10;96989.00;;;;5027204;28;20203;-85
2022/08/24 07:41:06;;;;;;;5.73;2.50;;;19.20;99.90;21.20;96999.00;;;;5029385;28;20233;-86
2022/08/24 07:44:15;;;;;;;4.17;1.73;;;19.40;99.90;21.20;97001.00;;;;5024698;28;20686;-85
2022/08/24 07:47:04;;;;;;;5.17;2.97;;;19.50;99.90;21.40;97005.00;;;;5059698;28;20205;-85
2022/08/24 07:50:03;;;;;;;3.90;2.17;;;19.60;99.90;21.50;97000.00;;;;5026671;28;20501;-84
2022/08/24 07:52:52;;;;;;;3.70;1.70;;;19.60;99.90;21.60;97012.00;;;;5038906;28;20193;-86
2022/08/24 07:55:43;;;;;;;5.87;2.20;;;19.70;99.90;21.80;97004.00;;;;5032397;28;20201;-85
2022/08/24 07:58:32;;;;;;;2.10;1.87;;;19.90;99.90;22.20;96990.00;;;;5030346;28;20208;-86
2022/08/24 08:01:22;;;;;;;4.30;1.60;;;20.00;99.90;22.50;97000.00;;;;5029120;28;20217;-85
2022/08/24 08:04:12;;;;;;;1.90;1.50;;;20.30;99.90;22.70;97003.00;;;;5034304;28;20216;-87
2022/08/24 08:07:01;;;;;;;2.90;1.33;;;20.60;99.90;23.10;96999.00;;;;5030764;28;20194;-86
2022/08/24 08:09:51;;;;;;;2.30;1.50;;;20.90;99.90;23.40;97000.00;;;;5024260;28;20198;-86
2022/08/24 08:12:41;;;;;;;1.57;1.40;;;21.20;99.90;23.80;96998.00;;;;5045345;28;20201;-85
2022/08/24 08:15:30;;;;;;;1.50;1.20;;;21.50;99.90;24.00;96991.00;;;;5024308;28;20197;-85
2022/08/24 08:18:19;;;;;;;2.83;1.37;;;21.80;99.90;24.00;96991.00;;;;5024437;28;20205;-86
2022/08/24 08:24:13;;;;;;;2.10;1.80;;;22.00;99.90;24.10;96982.00;;;;5026144;28;20244;-86
2022/08/24 08:24:17;;;;;;;2.10;1.13;;;22.10;99.90;24.10;96986.00;;;;5028485;28;20208;-85
2022/08/24 08:27:06;;;;;;;0.80;0.80;;;22.30;99.90;24.70;96987.00;;;;5031914;28;20220;-85
2022/08/24 08:29:56;;;;;;;2.03;1.10;;;22.60;99.90;24.80;96979.00;;;;5031947;28;20580;-85
2022/08/24 08:32:45;;;;;;;3.53;0.90;;;22.80;99.90;24.90;96979.00;;;;5029538;28;20201;-86
2022/08/24 08:35:36;;;;;;;1.30;1.20;;;23.00;99.90;25.20;96982.00;;;;5031561;28;20193;-85
2022/08/24 08:38:25;;;;;;;1.10;1.00;;;23.10;99.90;25.40;96984.00;;;;5030633;28;20193;-85
2022/08/24 08:42:13;;;;;;;1.30;1.17;;;23.40;99.90;25.50;96974.00;;;;5031571;28;20217;-85
2022/08/24 08:45:21;;;;;;;0.70;0.70;;;23.60;99.90;25.90;96981.00;;;;5004106;28;20199;-87
2022/08/24 08:49:02;;;;;;;1.77;0.90;;;23.80;99.90;26.00;96998.00;;;;5023236;28;20198;-86
2022/08/24 08:52:26;;;;;;;1.17;1.07;;;24.00;99.90;25.80;96990.00;;;;5031388;28;20228;-86
2022/08/24 08:55:27;;;;;;;2.10;1.10;;;24.20;99.90;26.20;97007.00;;;;5032477;28;20202;-84
2022/08/24 08:58:39;;;;;;;1.50;1.20;;;24.30;99.90;26.30;97002.00;;;;5022260;28;20251;-86
2022/08/24 09:01:39;;;;;;;1.10;0.90;;;24.40;99.90;26.30;96999.00;;;;5024467;28;20229;-85
2022/08/24 09:04:58;;;;;;;0.70;0.70;;;24.50;99.90;26.60;97011.00;;;;5035837;28;20198;-87
2022/08/24 09:08:00;;;;;;;1.43;1.23;;;24.60;99.90;26.40;96996.00;;;;5036886;28;21069;-86
2022/08/24 09:11:04;;;;;;;0.93;0.93;;;24.70;99.90;26.50;97005.00;;;;5039949;28;20217;-85
2022/08/24 09:14:31;;;;;;;1.47;0.80;;;24.70;99.90;26.80;97006.00;;;;5050657;28;20201;-86
2022/08/24 09:17:53;;;;;;;2.07;0.90;;;24.80;99.90;26.50;96999.00;;;;5042473;28;20861;-85
2022/08/24 09:21:19;;;;;;;1.33;0.90;;;24.80;99.90;26.90;96991.00;;;;5035049;28;20227;-86
2022/08/24 09:24:33;;;;;;;1.57;1.07;;;24.90;99.90;27.20;96991.00;;;;5047209;28;20601;-85
2022/08/24 09:27:40;;;;;;;0.90;0.90;;;25.10;99.90;27.00;96997.00;;;;5036207;28;20198;-84
2022/08/24 09:31:05;;;;;;;1.00;0.90;;;25.30;99.90;27.30;96999.00;;;;5041526;28;20221;-85
2022/08/24 09:34:23;;;;;;;1.33;0.83;;;25.40;99.90;27.40;96985.00;;;;5018288;28;20734;-86
2022/08/24 09:37:35;;;;;;;1.13;1.03;;;25.50;99.90;27.60;96987.00;;;;5012012;28;20190;-85
2022/08/24 09:40:51;;;;;;;2.27;0.87;;;25.60;99.90;27.10;96993.00;;;;5015635;28;20228;-86
2022/08/24 09:44:25;;;;;;;0.63;0.63;;;25.80;99.90;26.90;96993.00;;;;5028909;28;20250;-86
2022/08/24 09:47:48;;;;;;;1.10;1.00;;;25.60;99.90;27.20;96978.00;;;;5030273;28;20261;-85
2022/08/24 09:51:35;;;;;;;1.27;0.90;;;25.50;99.90;27.10;96999.00;;;;5048203;28;20406;-85
2022/08/24 09:55:06;;;;;;;1.23;1.10;;;25.50;99.90;26.90;96990.00;;;;5050921;28;20213;-86
2022/08/24 09:58:13;;;;;;;0.90;0.90;;;25.40;99.90;26.90;96993.00;;;;5028676;28;20217;-86
2022/08/24 10:01:09;;;;;;;0.97;0.90;;;25.30;99.90;27.10;96981.00;;;;5029932;28;20228;-86
2022/08/24 10:04:21;;;;;;;0.90;0.90;;;25.40;99.90;27.50;96977.00;;;;5029112;28;20204;-85
2022/08/24 10:07:21;;;;;;;0.90;0.80;;;25.50;99.90;28.00;96979.00;;;;5027632;28;20204;-85
2022/08/24 10:10:29;;;;;;;1.00;0.90;;;25.70;99.90;27.90;96970.00;;;;5030082;28;20209;-87
2022/08/24 10:13:31;;;;;;;1.07;0.93;;;26.00;99.40;28.20;96965.00;;;;5029331;28;20201;-86
2022/08/24 10:16:33;;;;;;;1.70;1.30;;;26.30;98.80;28.70;96956.00;;;;5030040;28;20201;-87
2022/08/24 10:20:05;;;;;;;0.80;0.80;;;26.50;99.00;29.10;96953.00;;;;5021402;28;20576;-86
2022/08/24 10:23:24;;;;;;;0.87;0.73;;;26.90;97.50;28.50;96943.00;;;;5029722;28;20204;-85
2022/08/24 10:26:22;;;;;;;1.20;0.90;;;27.10;94.40;29.50;96942.00;;;;5027909;28;20579;-87
2022/08/24 10:29:39;;;;;;;1.50;1.20;;;27.30;95.10;29.50;96942.00;;;;5021560;28;20683;-86
2022/08/24 10:32:52;;;;;;;3.23;0.93;;;27.60;93.40;29.80;96935.00;;;;5029322;28;20203;-85
2022/08/24 10:36:04;;;;;;;1.00;0.90;;;27.80;94.40;29.90;96927.00;;;;5048540;28;20207;-85
2022/08/24 10:46:39;;;;;;;2.40;1.07;;;28.10;89.80;29.30;96917.00;;;;5029530;28;20205;-86
2022/08/24 10:50:20;;;;;;;1.77;1.33;;;28.00;85.40;28.60;96916.00;;;;5006452;28;20212;-85
2022/08/24 10:53:24;;;;;;;1.70;1.60;;;28.20;82.90;29.30;96901.00;;;;5024303;28;20210;-85
2022/08/24 10:56:18;;;;;;;1.53;1.43;;;27.90;83.60;30.80;96903.00;;;;5029495;28;20583;-86
2022/08/24 10:59:19;;;;;;;2.53;2.03;;;28.10;86.40;30.50;96906.00;;;;5027571;28;20203;-84
2022/08/24 11:02:31;;;;;;;3.13;1.50;;;28.40;87.60;31.70;96904.00;;;;5030568;28;20256;-86
2022/08/24 11:05:40;;;;;;;1.70;1.60;;;28.90;82.70;31.30;96904.00;;;;5035112;28;20199;-85
2022/08/24 11:08:32;;;;;;;1.80;1.70;;;29.30;81.20;29.30;96907.00;;;;5040192;28;20203;-83
2022/08/24 11:11:30;;;;;;;1.53;1.43;;;28.90;76.50;30.40;96899.00;;;;5016263;28;20218;-84
2022/08/24 11:14:29;;;;;;;3.30;1.80;;;28.70;79.20;31.70;96897.00;;;;5027512;28;20203;-85
2022/08/24 11:17:22;;;;;;;1.77;1.67;;;29.00;81.60;32.10;96905.00;;;;5027004;28;20192;-84
2022/08/24 11:20:27;;;;;;;1.70;1.60;;;29.40;81.50;31.90;96905.00;;;;5027496;28;20716;-84
2022/08/24 11:23:20;;;;;;;1.92;1.70;;;29.60;79.50;32.60;96901.00;;;;5022270;28;20203;-84
2022/08/24 11:26:19;;;;;;;1.80;1.60;;;29.90;79.80;32.90;96892.00;;;;5024132;28;20203;-85
2022/08/24 11:29:09;;;;;;;1.42;1.33;;;30.20;79.50;33.20;96869.00;;;;5030492;28;20201;-85
2022/08/24 11:31:59;;;;;;;2.38;1.70;;;30.60;75.10;31.30;96928.00;;;;5040146;28;20266;-86
2022/08/24 11:34:49;;;;;;;1.38;1.27;;;30.20;70.50;31.10;96937.00;;;;5043838;28;20198;-86
2022/08/24 11:37:39;;;;;;;1.63;1.52;;;29.90;70.70;30.10;96937.00;;;;5030486;28;20676;-86
2022/08/24 11:40:31;;;;;;;1.40;1.30;;;29.60;68.90;29.40;96939.00;;;;5029595;28;20235;-86
2022/08/24 11:43:42;;;;;;;2.75;1.60;;;29.00;69.50;29.90;96928.00;;;;5032934;28;20209;-86
2022/08/24 11:46:45;;;;;;;1.58;1.48;;;28.80;71.60;29.50;96896.00;;;;5034175;28;20669;-84
2022/08/24 11:49:47;;;;;;;2.73;2.40;;;28.70;71.00;30.10;96877.00;;;;5024084;28;20202;-85
2022/08/24 11:52:55;;;;;;;1.40;1.30;;;28.60;72.70;31.80;96887.00;;;;5040060;28;20225;-86
2022/08/24 11:55:54;;;;;;;1.70;1.60;;;29.10;74.40;31.40;96895.00;;;;5032411;28;20202;-86
2022/08/24 11:58:54;;;;;;;1.77;1.67;;;29.50;72.50;32.30;96908.00;;;;5029394;28;20703;-86
2022/08/24 12:01:50;;;;;;;1.85;1.40;;;29.70;72.90;31.80;96894.00;;;;5031221;28;20282;-87
2022/08/24 12:04:53;;;;;;;1.90;1.80;;;29.90;72.80;31.40;96900.00;;;;5029672;28;20299;-85
2022/08/24 12:08:00;;;;;;;3.22;2.00;;;29.90;71.10;32.70;96889.00;;;;5030104;28;20208;-86
2022/08/24 12:10:59;;;;;;;1.92;1.73;;;30.00;72.70;32.60;96904.00;;;;5028509;28;20282;-87
2022/08/24 12:13:55;;;;;;;2.15;1.92;;;30.40;73.90;33.40;96891.00;;;;5037116;28;20203;-87
2022/08/24 12:16:51;;;;;;;1.70;1.60;;;30.60;72.40;32.60;96903.00;;;;5036843;28;20772;-86
2022/08/24 12:19:48;;;;;;;1.92;1.83;;;30.80;69.70;32.40;96915.00;;;;5034072;28;20853;-87
2022/08/24 12:22:41;;;;;;;1.50;1.40;;;30.80;69.90;31.70;96912.00;;;;5027981;28;20588;-86
2022/08/24 12:28:44;;;;;;;3.28;1.90;;;30.30;69.20;31.80;96883.00;;;;5027976;28;20219;-86
2022/08/24 12:31:41;;;;;;;1.55;1.45;;;30.10;72.40;33.30;96899.00;;;;5028118;28;20217;-87
2022/08/24 12:34:47;;;;;;;1.60;1.50;;;30.50;74.30;33.70;96890.00;;;;5028338;28;20197;-87
2022/08/24 12:37:43;;;;;;;2.13;1.40;;;30.90;72.60;33.30;96887.00;;;;5027705;28;20679;-85
2022/08/24 12:40:38;;;;;;;1.38;1.25;;;31.10;69.70;34.10;96882.00;;;;5011637;28;20219;-86
2022/08/24 12:43:36;;;;;;;1.95;1.85;;;31.30;70.50;34.40;96883.00;;;;5030396;28;20211;-86
2022/08/24 12:46:27;;;;;;;2.22;1.60;;;31.70;70.70;34.80;96871.00;;;;5034835;28;20207;-86
2022/08/24 12:49:25;;;;;;;3.13;1.77;;;32.10;69.60;35.60;96871.00;;;;5030930;28;20205;-90
2022/08/24 12:53:07;;;;;;;2.30;1.88;;;32.50;69.00;36.60;96881.00;;;;5020531;28;20245;-89
2022/08/24 12:56:13;;;;;;;2.25;2.08;;;33.10;68.10;36.80;96881.00;;;;5027163;28;20216;-90
2022/08/24 12:59:08;;;;;;;2.00;1.77;;;33.80;65.90;37.10;96876.00;;;;5035161;28;20208;-88
2022/08/24 13:02:02;;;;;;;2.08;1.30;;;34.10;64.80;37.10;96864.00;;;;5044616;28;20229;-90
2022/08/24 13:04:58;;;;;;;1.63;1.30;;;34.40;62.30;35.10;96847.00;;;;5038121;28;20632;-90
2022/08/24 13:07:53;;;;;;;2.38;2.15;;;34.40;61.00;37.30;96846.00;;;;5038862;28;20202;-90
2022/08/24 13:10:43;;;;;;;3.25;1.60;;;34.50;61.40;38.90;96851.00;;;;5038709;23;20235;-87
2022/08/24 13:13:47;;;;;;;1.55;1.45;;;35.00;62.80;37.70;96864.00;;;;5022676;28;20584;-86